sensor_id;sensor_type;location;lat;lon;timestamp;pressure;altitude;pressure_sealevel;temperature;humidity
81372;BME280;70827;52.206;5.294;2023-12-20T00:02:22;101452.91;;;5.41;91.01
81372;BME280;70827;52.206;5.294;2023-12-20T00:04:47;101440.91;;;5.41;90.75
81372;BME280;70827;52.206;5.294;2023-12-20T00:07:15;101447.72;;;5.39;90.86
81372;BME280;70827;52.206;5.294;2023-12-20T00:09:41;101443.50;;;5.43;90.72
81372;BME280;70827;52.206;5.294;2023-12-20T00:12:07;101435.75;;;5.41;90.69
81372;BME280;70827;52.206;5.294;2023-12-20T00:14:33;101431.34;;;5.34;90.92
81372;BME280;70827;52.206;5.294;2023-12-20T00:16:58;101436.59;;;5.39;90.48
81372;BME280;70827;52.206;5.294;2023-12-20T00:19:24;101428.81;;;5.37;90.91
81372;BME280;70827;52.206;5.294;2023-12-20T00:21:49;101421.91;;;5.33;90.74
81372;BME280;70827;52.206;5.294;2023-12-20T00:24:20;101425.25;;;5.29;90.87
81372;BME280;70827;52.206;5.294;2023-12-20T00:26:45;101413.22;;;5.27;90.76
81372;BME280;70827;52.206;5.294;2023-12-20T00:29:11;101425.34;;;5.35;90.56
81372;BME280;70827;52.206;5.294;2023-12-20T00:31:36;101432.81;;;5.20;90.74
81372;BME280;70827;52.206;5.294;2023-12-20T00:34:02;101432.81;;;5.20;91.06
81372;BME280;70827;52.206;5.294;2023-12-20T00:36:28;101431.91;;;5.18;90.80
81372;BME280;70827;52.206;5.294;2023-12-20T00:38:53;101441.47;;;5.24;90.65
81372;BME280;70827;52.206;5.294;2023-12-20T00:41:21;101434.41;;;5.13;90.86
81372;BME280;70827;52.206;5.294;2023-12-20T00:43:47;101435.31;;;5.16;90.64
81372;BME280;70827;52.206;5.294;2023-12-20T00:46:13;101427.75;;;5.25;90.69
81372;BME280;70827;52.206;5.294;2023-12-20T00:48:38;101438.72;;;5.14;90.89
81372;BME280;70827;52.206;5.294;2023-12-20T00:51:04;101425.09;;;5.20;90.80
81372;BME280;70827;52.206;5.294;2023-12-20T00:53:29;101431.81;;;5.12;90.83
81372;BME280;70827;52.206;5.294;2023-12-20T00:55:55;101430.28;;;5.22;90.39
81372;BME280;70827;52.206;5.294;2023-12-20T00:58:23;101431.94;;;5.20;90.48
81372;BME280;70827;52.206;5.294;2023-12-20T01:00:49;101417.47;;;5.25;90.31
81372;BME280;70827;52.206;5.294;2023-12-20T01:03:14;101430.34;;;5.25;90.17
81372;BME280;70827;52.206;5.294;2023-12-20T01:05:40;101427.66;;;5.20;90.07
81372;BME280;70827;52.206;5.294;2023-12-20T01:08:06;101422.59;;;5.23;89.84
81372;BME280;70827;52.206;5.294;2023-12-20T01:10:32;101425.25;;;5.28;90.03
81372;BME280;70827;52.206;5.294;2023-12-20T01:12:57;101429.41;;;5.21;89.79
81372;BME280;70827;52.206;5.294;2023-12-20T01:15:25;101438.78;;;5.19;90.00
81372;BME280;70827;52.206;5.294;2023-12-20T01:17:51;101434.56;;;5.21;90.39
81372;BME280;70827;52.206;5.294;2023-12-20T01:20:17;101422.53;;;5.20;90.16
81372;BME280;70827;52.206;5.294;2023-12-20T01:22:42;101425.03;;;5.17;90.37
81372;BME280;70827;52.206;5.294;2023-12-20T01:25:08;101421.81;;;5.29;90.41
81372;BME280;70827;52.206;5.294;2023-12-20T01:27:34;101427.75;;;5.25;90.18
81372;BME280;70827;52.206;5.294;2023-12-20T01:29:59;101422.63;;;5.25;90.40
81372;BME280;70827;52.206;5.294;2023-12-20T01:32:28;101431.28;;;5.30;90.09
81372;BME280;70827;52.206;5.294;2023-12-20T01:34:53;101433.91;;;5.34;89.89
81372;BME280;70827;52.206;5.294;2023-12-20T01:37:19;101436.63;;;5.42;89.83
81372;BME280;70827;52.206;5.294;2023-12-20T01:39:44;101439.09;;;5.37;89.61
81372;BME280;70827;52.206;5.294;2023-12-20T01:42:10;101430.56;;;5.38;89.94
81372;BME280;70827;52.206;5.294;2023-12-20T01:44:36;101437.50;;;5.42;89.51
81372;BME280;70827;52.206;5.294;2023-12-20T01:47:01;101433.25;;;5.46;89.27
81372;BME280;70827;52.206;5.294;2023-12-20T01:49:29;101421.16;;;5.39;89.51
81372;BME280;70827;52.206;5.294;2023-12-20T01:51:55;101423.81;;;5.45;89.35
81372;BME280;70827;52.206;5.294;2023-12-20T01:54:21;101417.06;;;5.52;89.69
81372;BME280;70827;52.206;5.294;2023-12-20T01:56:48;101428.13;;;5.48;89.54
81372;BME280;70827;52.206;5.294;2023-12-20T01:59:14;101420.31;;;5.40;89.55
81372;BME280;70827;52.206;5.294;2023-12-20T02:01:40;101416.84;;;5.38;89.85
81372;BME280;70827;52.206;5.294;2023-12-20T02:04:05;101423.00;;;5.49;89.68
81372;BME280;70827;52.206;5.294;2023-12-20T02:06:34;101423.78;;;5.43;89.81
81372;BME280;70827;52.206;5.294;2023-12-20T02:08:59;101413.63;;;5.51;89.81
81372;BME280;70827;52.206;5.294;2023-12-20T02:11:25;101423.84;;;5.47;89.93
81372;BME280;70827;52.206;5.294;2023-12-20T02:13:51;101427.28;;;5.49;90.11
81372;BME280;70827;52.206;5.294;2023-12-20T02:16:17;101413.75;;;5.59;89.95
81372;BME280;70827;52.206;5.294;2023-12-20T02:18:43;101414.50;;;5.53;89.62
81372;BME280;70827;52.206;5.294;2023-12-20T02:21:09;101400.91;;;5.60;89.32
81372;BME280;70827;52.206;5.294;2023-12-20T02:23:37;101405.91;;;5.51;89.59
81372;BME280;70827;52.206;5.294;2023-12-20T02:26:03;101406.88;;;5.58;89.43
81372;BME280;70827;52.206;5.294;2023-12-20T02:28:29;101406.91;;;5.59;89.49
81372;BME280;70827;52.206;5.294;2023-12-20T02:30:56;101405.19;;;5.58;89.49
81372;BME280;70827;52.206;5.294;2023-12-20T02:33:21;101401.84;;;5.65;89.54
81372;BME280;70827;52.206;5.294;2023-12-20T02:35:47;101407.09;;;5.71;89.02
81372;BME280;70827;52.206;5.294;2023-12-20T02:38:13;101399.28;;;5.67;89.18
81372;BME280;70827;52.206;5.294;2023-12-20T02:40:41;101402.69;;;5.64;89.54
81372;BME280;70827;52.206;5.294;2023-12-20T02:43:06;101398.41;;;5.65;89.26
81372;BME280;70827;52.206;5.294;2023-12-20T02:45:32;101390.66;;;5.63;89.56
81372;BME280;70827;52.206;5.294;2023-12-20T02:47:58;101393.31;;;5.69;89.48
81372;BME280;70827;52.206;5.294;2023-12-20T02:50:23;101392.34;;;5.60;89.71
81372;BME280;70827;52.206;5.294;2023-12-20T02:52:49;101377.78;;;5.62;89.66
81372;BME280;70827;52.206;5.294;2023-12-20T02:55:15;101364.97;;;5.65;89.30
81372;BME280;70827;52.206;5.294;2023-12-20T02:57:43;101359.81;;;5.63;89.10
81372;BME280;70827;52.206;5.294;2023-12-20T03:00:09;101354.81;;;5.72;88.75
81372;BME280;70827;52.206;5.294;2023-12-20T03:02:35;101359.09;;;5.72;88.59
81372;BME280;70827;52.206;5.294;2023-12-20T03:05:01;101352.38;;;5.83;88.06
81372;BME280;70827;52.206;5.294;2023-12-20T03:07:27;101364.34;;;5.80;88.26
81372;BME280;70827;52.206;5.294;2023-12-20T03:09:52;101366.97;;;5.86;87.85
81372;BME280;70827;52.206;5.294;2023-12-20T03:12:18;101380.59;;;5.79;88.18
81372;BME280;70827;52.206;5.294;2023-12-20T03:14:47;101362.66;;;5.83;87.52
81372;BME280;70827;52.206;5.294;2023-12-20T03:17:13;101365.25;;;5.85;87.90
81372;BME280;70827;52.206;5.294;2023-12-20T03:19:38;101367.03;;;5.89;87.61
81372;BME280;70827;52.206;5.294;2023-12-20T03:22:04;101357.69;;;5.92;87.51
81372;BME280;70827;52.206;5.294;2023-12-20T03:24:29;101349.13;;;5.95;87.18
81372;BME280;70827;52.206;5.294;2023-12-20T03:26:55;101353.44;;;5.96;87.03
81372;BME280;70827;52.206;5.294;2023-12-20T03:29:21;101349.97;;;5.92;87.09
81372;BME280;70827;52.206;5.294;2023-12-20T03:31:49;101358.59;;;5.96;86.91
81372;BME280;70827;52.206;5.294;2023-12-20T03:34:14;101356.88;;;5.96;87.29
81372;BME280;70827;52.206;5.294;2023-12-20T03:36:40;101343.03;;;5.88;87.03
81372;BME280;70827;52.206;5.294;2023-12-20T03:39:06;101355.16;;;5.95;86.98
81372;BME280;70827;52.206;5.294;2023-12-20T03:41:31;101360.25;;;5.92;86.77
81372;BME280;70827;52.206;5.294;2023-12-20T03:43:57;101365.50;;;6.00;86.42
81372;BME280;70827;52.206;5.294;2023-12-20T03:46:22;101361.16;;;5.96;86.09
81372;BME280;70827;52.206;5.294;2023-12-20T03:48:50;101372.38;;;6.01;86.02
81372;BME280;70827;52.206;5.294;2023-12-20T03:51:16;101372.53;;;6.13;85.42
81372;BME280;70827;52.206;5.294;2023-12-20T03:53:42;101374.19;;;6.08;85.64
81372;BME280;70827;52.206;5.294;2023-12-20T03:56:07;101366.44;;;6.05;86.08
81372;BME280;70827;52.206;5.294;2023-12-20T03:58:33;101366.50;;;6.10;86.33
81372;BME280;70827;52.206;5.294;2023-12-20T04:00:58;101366.47;;;6.08;86.05
81372;BME280;70827;52.206;5.294;2023-12-20T04:03:24;101367.38;;;6.13;85.85
81372;BME280;70827;52.206;5.294;2023-12-20T04:05:52;101359.66;;;6.12;86.12
81372;BME280;70827;52.206;5.294;2023-12-20T04:08:21;101362.28;;;6.18;84.92
81372;BME280;70827;52.206;5.294;2023-12-20T04:10:46;101356.25;;;6.16;85.08
81372;BME280;70827;52.206;5.294;2023-12-20T04:13:12;101351.94;;;6.12;85.57
81372;BME280;70827;52.206;5.294;2023-12-20T04:15:37;101354.56;;;6.16;84.93
81372;BME280;70827;52.206;5.294;2023-12-20T04:18:03;101345.09;;;6.14;85.08
81372;BME280;70827;52.206;5.294;2023-12-20T04:20:29;101351.09;;;6.14;85.79
81372;BME280;70827;52.206;5.294;2023-12-20T04:22:57;101357.16;;;6.19;84.87
81372;BME280;70827;52.206;5.294;2023-12-20T04:25:23;101359.72;;;6.19;85.51
81372;BME280;70827;52.206;5.294;2023-12-20T04:27:48;101352.13;;;6.27;84.48
81372;BME280;70827;52.206;5.294;2023-12-20T04:30:14;101325.38;;;6.16;84.38
81372;BME280;70827;52.206;5.294;2023-12-20T04:32:40;101348.69;;;6.26;84.61
81372;BME280;70827;52.206;5.294;2023-12-20T04:35:05;101342.69;;;6.29;84.43
81372;BME280;70827;52.206;5.294;2023-12-20T04:37:31;101352.16;;;6.30;84.53
81372;BME280;70827;52.206;5.294;2023-12-20T04:39:59;101351.28;;;6.29;84.85
81372;BME280;70827;52.206;5.294;2023-12-20T04:42:25;101353.91;;;6.34;84.15
81372;BME280;70827;52.206;5.294;2023-12-20T04:44:50;101354.72;;;6.28;84.96
81372;BME280;70827;52.206;5.294;2023-12-20T04:47:16;101351.31;;;6.34;84.92
81372;BME280;70827;52.206;5.294;2023-12-20T04:49:41;101345.31;;;6.32;85.03
81372;BME280;70827;52.206;5.294;2023-12-20T04:52:07;101343.59;;;6.32;84.59
81372;BME280;70827;52.206;5.294;2023-12-20T04:54:33;101346.19;;;6.36;84.45
81372;BME280;70827;52.206;5.294;2023-12-20T04:57:01;101327.25;;;6.30;84.10
81372;BME280;70827;52.206;5.294;2023-12-20T04:59:26;101328.22;;;6.39;84.22
81372;BME280;70827;52.206;5.294;2023-12-20T05:01:52;101328.22;;;6.39;84.38
81372;BME280;70827;52.206;5.294;2023-12-20T05:04:18;101323.88;;;6.34;84.14
81372;BME280;70827;52.206;5.294;2023-12-20T05:06:44;101333.44;;;6.43;83.60
81372;BME280;70827;52.206;5.294;2023-12-20T05:09:09;101329.91;;;6.37;84.29
81372;BME280;70827;52.206;5.294;2023-12-20T05:11:35;101341.97;;;6.39;84.34
81372;BME280;70827;52.206;5.294;2023-12-20T05:14:03;101344.53;;;6.39;84.39
81372;BME280;70827;52.206;5.294;2023-12-20T05:16:29;101345.41;;;6.41;84.56
81372;BME280;70827;52.206;5.294;2023-12-20T05:18:54;101333.25;;;6.28;85.08
81372;BME280;70827;52.206;5.294;2023-12-20T05:21:20;101341.03;;;6.36;84.70
81372;BME280;70827;52.206;5.294;2023-12-20T05:23:45;101343.69;;;6.39;84.34
81372;BME280;70827;52.206;5.294;2023-12-20T05:26:11;101342.78;;;6.37;84.68
81372;BME280;70827;52.206;5.294;2023-12-20T05:28:37;101347.06;;;6.38;84.34
81372;BME280;70827;52.206;5.294;2023-12-20T05:31:05;101349.72;;;6.41;84.69
81372;BME280;70827;52.206;5.294;2023-12-20T05:33:31;101341.91;;;6.38;84.43
81372;BME280;70827;52.206;5.294;2023-12-20T05:35:56;101340.22;;;6.38;84.28
81372;BME280;70827;52.206;5.294;2023-12-20T05:38:22;101339.41;;;6.39;84.21
81372;BME280;70827;52.206;5.294;2023-12-20T05:40:47;101344.56;;;6.41;84.63
81372;BME280;70827;52.206;5.294;2023-12-20T05:43:13;101341.91;;;6.36;84.45
81372;BME280;70827;52.206;5.294;2023-12-20T05:45:38;101348.00;;;6.43;84.00
81372;BME280;70827;52.206;5.294;2023-12-20T05:48:07;101347.97;;;6.40;84.40
81372;BME280;70827;52.206;5.294;2023-12-20T05:50:32;101342.88;;;6.44;83.84
81372;BME280;70827;52.206;5.294;2023-12-20T05:52:58;101354.00;;;6.42;84.41
81372;BME280;70827;52.206;5.294;2023-12-20T05:55:24;101349.72;;;6.41;84.18
81372;BME280;70827;52.206;5.294;2023-12-20T05:57:49;101339.44;;;6.44;84.72
81372;BME280;70827;52.206;5.294;2023-12-20T06:00:16;101342.06;;;6.48;83.93
81372;BME280;70827;52.206;5.294;2023-12-20T06:02:43;101342.03;;;6.47;84.35
81372;BME280;70827;52.206;5.294;2023-12-20T06:05:11;101342.09;;;6.54;83.70
81372;BME280;70827;52.206;5.294;2023-12-20T06:07:37;101330.88;;;6.46;84.35
81372;BME280;70827;52.206;5.294;2023-12-20T06:10:03;101325.75;;;6.48;84.04
81372;BME280;70827;52.206;5.294;2023-12-20T06:12:28;101330.91;;;6.51;83.65
81372;BME280;70827;52.206;5.294;2023-12-20T06:14:54;101324.06;;;6.51;83.80
81372;BME280;70827;52.206;5.294;2023-12-20T06:17:19;101333.50;;;6.52;83.82
81372;BME280;70827;52.206;5.294;2023-12-20T06:19:45;101324.06;;;6.54;84.08
81372;BME280;70827;52.206;5.294;2023-12-20T06:22:13;101320.69;;;6.55;83.74
81372;BME280;70827;52.206;5.294;2023-12-20T06:24:39;101323.25;;;6.55;83.91
81372;BME280;70827;52.206;5.294;2023-12-20T06:27:04;101337.88;;;6.59;83.61
81372;BME280;70827;52.206;5.294;2023-12-20T06:29:30;101327.56;;;6.58;83.50
81372;BME280;70827;52.206;5.294;2023-12-20T06:31:56;101331.00;;;6.58;83.65
81372;BME280;70827;52.206;5.294;2023-12-20T06:34:21;101315.59;;;6.61;83.31
81372;BME280;70827;52.206;5.294;2023-12-20T06:36:47;101326.72;;;6.57;84.02
81372;BME280;70827;52.206;5.294;2023-12-20T06:39:15;101322.47;;;6.64;83.38
81372;BME280;70827;52.206;5.294;2023-12-20T06:41:41;101313.00;;;6.63;83.64
81372;BME280;70827;52.206;5.294;2023-12-20T06:44:06;101315.63;;;6.69;83.05
81372;BME280;70827;52.206;5.294;2023-12-20T06:46:32;101316.50;;;6.70;82.94
81372;BME280;70827;52.206;5.294;2023-12-20T06:48:57;101313.94;;;6.70;83.05
81372;BME280;70827;52.206;5.294;2023-12-20T06:51:23;101305.31;;;6.66;84.01
81372;BME280;70827;52.206;5.294;2023-12-20T06:53:49;101307.94;;;6.71;83.32
81372;BME280;70827;52.206;5.294;2023-12-20T06:56:17;101317.38;;;6.72;83.58
81372;BME280;70827;52.206;5.294;2023-12-20T06:58:42;101315.72;;;6.77;82.79
81372;BME280;70827;52.206;5.294;2023-12-20T07:01:11;101318.34;;;6.80;82.96
81372;BME280;70827;52.206;5.294;2023-12-20T07:03:36;101321.75;;;6.77;83.34
81372;BME280;70827;52.206;5.294;2023-12-20T07:06:03;101322.63;;;6.79;82.85
81372;BME280;70827;52.206;5.294;2023-12-20T07:08:28;101314.03;;;6.77;82.76
81372;BME280;70827;52.206;5.294;2023-12-20T07:10:54;101306.31;;;6.80;82.58
81372;BME280;70827;52.206;5.294;2023-12-20T07:13:22;101301.19;;;6.83;82.47
81372;BME280;70827;52.206;5.294;2023-12-20T07:15:48;101297.72;;;6.81;82.63
81372;BME280;70827;52.206;5.294;2023-12-20T07:18:13;101296.03;;;6.85;82.31
81372;BME280;70827;52.206;5.294;2023-12-20T07:20:39;101286.56;;;6.82;82.62
81372;BME280;70827;52.206;5.294;2023-12-20T07:23:05;101284.00;;;6.84;82.73
81372;BME280;70827;52.206;5.294;2023-12-20T07:25:30;101294.28;;;6.82;82.64
81372;BME280;70827;52.206;5.294;2023-12-20T07:27:56;101287.41;;;6.81;83.17
81372;BME280;70827;52.206;5.294;2023-12-20T07:30:24;101279.69;;;6.83;82.90
81372;BME280;70827;52.206;5.294;2023-12-20T07:32:49;101284.00;;;6.82;82.72
81372;BME280;70827;52.206;5.294;2023-12-20T07:35:15;101284.00;;;6.82;82.79
81372;BME280;70827;52.206;5.294;2023-12-20T07:37:41;101284.84;;;6.83;82.73
81372;BME280;70827;52.206;5.294;2023-12-20T07:40:07;101279.69;;;6.81;83.07
81372;BME280;70827;52.206;5.294;2023-12-20T07:42:33;101296.00;;;6.82;82.73
81372;BME280;70827;52.206;5.294;2023-12-20T07:44:59;101289.19;;;6.88;82.51
81372;BME280;70827;52.206;5.294;2023-12-20T07:47:27;101288.25;;;6.79;83.48
81372;BME280;70827;52.206;5.294;2023-12-20T07:49:52;101302.06;;;6.85;82.73
81372;BME280;70827;52.206;5.294;2023-12-20T07:52:18;101308.94;;;6.88;83.23
81372;BME280;70827;52.206;5.294;2023-12-20T07:54:44;101316.72;;;6.89;82.79
81372;BME280;70827;52.206;5.294;2023-12-20T07:57:10;101314.97;;;6.88;83.05
81372;BME280;70827;52.206;5.294;2023-12-20T07:59:35;101311.56;;;6.91;83.12
81372;BME280;70827;52.206;5.294;2023-12-20T08:02:01;101312.44;;;6.93;82.97
81372;BME280;70827;52.206;5.294;2023-12-20T08:04:29;101317.56;;;6.90;83.57
81372;BME280;70827;52.206;5.294;2023-12-20T08:06:55;101332.19;;;6.91;83.15
81372;BME280;70827;52.206;5.294;2023-12-20T08:09:21;101327.94;;;6.98;82.67
81372;BME280;70827;52.206;5.294;2023-12-20T08:11:46;101322.78;;;6.96;83.01
81372;BME280;70827;52.206;5.294;2023-12-20T08:14:12;101324.50;;;6.99;83.07
81372;BME280;70827;52.206;5.294;2023-12-20T08:16:38;101321.06;;;7.00;82.21
81372;BME280;70827;52.206;5.294;2023-12-20T08:19:04;101315.03;;;6.94;83.00
81372;BME280;70827;52.206;5.294;2023-12-20T08:21:32;101317.63;;;6.98;82.86
81372;BME280;70827;52.206;5.294;2023-12-20T08:23:57;101317.63;;;6.96;83.10
81372;BME280;70827;52.206;5.294;2023-12-20T08:26:23;101318.50;;;7.00;82.82
81372;BME280;70827;52.206;5.294;2023-12-20T08:28:49;101312.47;;;6.99;82.72
81372;BME280;70827;52.206;5.294;2023-12-20T08:31:15;101308.22;;;7.04;82.62
81372;BME280;70827;52.206;5.294;2023-12-20T08:33:40;101304.72;;;6.94;83.21
81372;BME280;70827;52.206;5.294;2023-12-20T08:36:06;101297.03;;;7.01;82.90
81372;BME280;70827;52.206;5.294;2023-12-20T08:38:34;101297.03;;;7.04;82.63
81372;BME280;70827;52.206;5.294;2023-12-20T08:41:00;101299.69;;;7.07;83.37
81372;BME280;70827;52.206;5.294;2023-12-20T08:43:25;101304.00;;;7.09;82.96
81372;BME280;70827;52.206;5.294;2023-12-20T08:45:51;101295.38;;;7.09;83.24
81372;BME280;70827;52.206;5.294;2023-12-20T08:48:17;101291.09;;;7.08;83.57
81372;BME280;70827;52.206;5.294;2023-12-20T08:50:43;101304.00;;;7.09;83.55
81372;BME280;70827;52.206;5.294;2023-12-20T08:53:08;101308.31;;;7.15;84.32
81372;BME280;70827;52.206;5.294;2023-12-20T08:55:37;101307.44;;;7.10;83.58
81372;BME280;70827;52.206;5.294;2023-12-20T08:58:03;101303.13;;;7.10;84.13
81372;BME280;70827;52.206;5.294;2023-12-20T09:00:28;101310.00;;;7.10;84.07
81372;BME280;70827;52.206;5.294;2023-12-20T09:02:54;101302.28;;;7.11;84.08
81372;BME280;70827;52.206;5.294;2023-12-20T09:05:20;101302.31;;;7.16;83.67
81372;BME280;70827;52.206;5.294;2023-12-20T09:07:45;101301.47;;;7.21;83.33
81372;BME280;70827;52.206;5.294;2023-12-20T09:10:11;101294.59;;;7.19;84.28
81372;BME280;70827;52.206;5.294;2023-12-20T09:12:39;101293.78;;;7.23;83.58
81372;BME280;70827;52.206;5.294;2023-12-20T09:15:05;101298.09;;;7.24;84.05
81372;BME280;70827;52.206;5.294;2023-12-20T09:17:31;101304.09;;;7.24;83.35
81372;BME280;70827;52.206;5.294;2023-12-20T09:19:56;101308.47;;;7.36;83.49
81372;BME280;70827;52.206;5.294;2023-12-20T09:22:22;101305.88;;;7.35;83.27
81372;BME280;70827;52.206;5.294;2023-12-20T09:24:48;101301.56;;;7.34;83.16
81372;BME280;70827;52.206;5.294;2023-12-20T09:27:13;101320.50;;;7.37;83.93
81372;BME280;70827;52.206;5.294;2023-12-20T09:29:41;101307.59;;;7.33;83.38
81372;BME280;70827;52.206;5.294;2023-12-20T09:32:07;101298.19;;;7.41;82.66
81372;BME280;70827;52.206;5.294;2023-12-20T09:34:33;101311.97;;;7.41;82.72
81372;BME280;70827;52.206;5.294;2023-12-20T09:36:58;101297.38;;;7.51;81.84
81372;BME280;70827;52.206;5.294;2023-12-20T09:39:24;101293.09;;;7.53;81.93
81372;BME280;70827;52.206;5.294;2023-12-20T09:41:56;101288.78;;;7.50;82.12
81372;BME280;70827;52.206;5.294;2023-12-20T09:44:25;101299.97;;;7.54;81.85
81372;BME280;70827;52.206;5.294;2023-12-20T09:46:54;101293.09;;;7.54;81.53
81372;BME280;70827;52.206;5.294;2023-12-20T09:49:20;101299.16;;;7.60;81.28
81372;BME280;70827;52.206;5.294;2023-12-20T09:51:46;101300.91;;;7.61;81.29
81372;BME280;70827;52.206;5.294;2023-12-20T09:54:12;101306.94;;;7.66;81.49
81372;BME280;70827;52.206;5.294;2023-12-20T09:56:39;101320.72;;;7.71;81.49
81372;BME280;70827;52.206;5.294;2023-12-20T09:59:04;101319.84;;;7.72;80.83
81372;BME280;70827;52.206;5.294;2023-12-20T10:01:30;101327.66;;;7.78;81.30
81372;BME280;70827;52.206;5.294;2023-12-20T10:03:59;101319.84;;;7.69;80.42
81372;BME280;70827;52.206;5.294;2023-12-20T10:06:25;101327.63;;;7.73;80.96
81372;BME280;70827;52.206;5.294;2023-12-20T10:08:51;101331.09;;;7.75;81.64
81372;BME280;70827;52.206;5.294;2023-12-20T10:11:17;101325.06;;;7.75;80.80
81372;BME280;70827;52.206;5.294;2023-12-20T10:13:43;101319.06;;;7.82;81.01
81372;BME280;70827;52.206;5.294;2023-12-20T10:16:08;101325.06;;;7.75;81.18
81372;BME280;70827;52.206;5.294;2023-12-20T10:18:34;101331.09;;;7.78;81.02
81372;BME280;70827;52.206;5.294;2023-12-20T10:21:03;101326.81;;;7.83;80.98
81372;BME280;70827;52.206;5.294;2023-12-20T10:23:29;101312.19;;;7.84;80.89
81372;BME280;70827;52.206;5.294;2023-12-20T10:25:58;101311.31;;;7.77;81.39
81372;BME280;70827;52.206;5.294;2023-12-20T10:28:23;101317.34;;;7.85;80.91
81372;BME280;70827;52.206;5.294;2023-12-20T10:30:49;101315.63;;;7.86;80.00
81372;BME280;70827;52.206;5.294;2023-12-20T10:33:16;101326.88;;;7.93;80.28
81372;BME280;70827;52.206;5.294;2023-12-20T10:35:48;101327.75;;;8.04;79.95
81372;BME280;70827;52.206;5.294;2023-12-20T10:38:16;101320.00;;;7.99;80.08
81372;BME280;70827;52.206;5.294;2023-12-20T10:40:42;101321.72;;;8.00;79.85
81372;BME280;70827;52.206;5.294;2023-12-20T10:43:07;101320.00;;;8.04;79.77
81372;BME280;70827;52.206;5.294;2023-12-20T10:45:34;101309.69;;;8.02;79.26
81372;BME280;70827;52.206;5.294;2023-12-20T10:47:59;101305.44;;;8.12;79.08
81372;BME280;70827;52.206;5.294;2023-12-20T10:50:27;101299.47;;;8.24;79.53
81372;BME280;70827;52.206;5.294;2023-12-20T10:52:52;101301.19;;;8.28;79.03
81372;BME280;70827;52.206;5.294;2023-12-20T10:55:22;101299.41;;;8.21;79.00
81372;BME280;70827;52.206;5.294;2023-12-20T10:57:48;101305.44;;;8.15;79.08
81372;BME280;70827;52.206;5.294;2023-12-20T11:00:15;101288.31;;;8.37;78.81
81372;BME280;70827;52.206;5.294;2023-12-20T11:02:41;101286.66;;;8.80;77.82
81372;BME280;70827;52.206;5.294;2023-12-20T11:05:13;101276.31;;;8.76;76.31
81372;BME280;70827;52.206;5.294;2023-12-20T11:07:42;101285.81;;;9.12;75.54
81372;BME280;70827;52.206;5.294;2023-12-20T11:10:15;101275.47;;;9.09;75.52
81372;BME280;70827;52.206;5.294;2023-12-20T11:12:48;101290.91;;;9.60;74.69
81372;BME280;70827;52.206;5.294;2023-12-20T11:15:17;101282.19;;;9.74;73.46
81372;BME280;70827;52.206;5.294;2023-12-20T11:17:44;101275.41;;;9.31;74.13
81372;BME280;70827;52.206;5.294;2023-12-20T11:20:11;101276.28;;;9.18;74.77
81372;BME280;70827;52.206;5.294;2023-12-20T11:22:36;101258.19;;;9.03;75.30
81372;BME280;70827;52.206;5.294;2023-12-20T11:25:04;101255.63;;;8.97;75.17
81372;BME280;70827;52.206;5.294;2023-12-20T11:27:30;101254.78;;;9.09;75.31
81372;BME280;70827;52.206;5.294;2023-12-20T11:29:59;101252.06;;;9.60;73.15
81372;BME280;70827;52.206;5.294;2023-12-20T11:32:28;101256.34;;;9.69;72.97
81372;BME280;70827;52.206;5.294;2023-12-20T11:34:55;101258.19;;;9.27;73.97
81372;BME280;70827;52.206;5.294;2023-12-20T11:37:21;101259.94;;;9.10;74.13
81372;BME280;70827;52.206;5.294;2023-12-20T11:39:54;101261.66;;;9.07;74.83
81372;BME280;70827;52.206;5.294;2023-12-20T11:42:20;101258.22;;;8.97;73.88
81372;BME280;70827;52.206;5.294;2023-12-20T11:44:45;101253.94;;;8.91;74.63
81372;BME280;70827;52.206;5.294;2023-12-20T11:47:14;101241.84;;;8.92;74.83
81372;BME280;70827;52.206;5.294;2023-12-20T11:49:40;101251.34;;;8.93;75.69
81372;BME280;70827;52.206;5.294;2023-12-20T11:52:05;101228.91;;;8.96;75.56
81372;BME280;70827;52.206;5.294;2023-12-20T11:54:31;101230.66;;;8.93;75.47
81372;BME280;70827;52.206;5.294;2023-12-20T11:56:56;101222.91;;;8.82;75.45
81372;BME280;70827;52.206;5.294;2023-12-20T11:59:22;101216.84;;;9.00;76.28
81372;BME280;70827;52.206;5.294;2023-12-20T12:01:48;101240.13;;;8.88;76.29
81372;BME280;70827;52.206;5.294;2023-12-20T12:04:17;101238.38;;;8.73;76.40
81372;BME280;70827;52.206;5.294;2023-12-20T12:06:42;101240.97;;;8.71;76.66
81372;BME280;70827;52.206;5.294;2023-12-20T12:09:08;101241.00;;;8.76;77.27
81372;BME280;70827;52.206;5.294;2023-12-20T12:11:34;101241.88;;;8.73;76.92
81372;BME280;70827;52.206;5.294;2023-12-20T12:13:59;101252.19;;;8.78;77.51
81372;BME280;70827;52.206;5.294;2023-12-20T12:16:25;101248.75;;;8.76;77.05
81372;BME280;70827;52.206;5.294;2023-12-20T12:18:57;101260.81;;;8.74;76.81
81372;BME280;70827;52.206;5.294;2023-12-20T12:21:25;101253.06;;;8.82;77.08
81372;BME280;70827;52.206;5.294;2023-12-20T12:23:51;101249.59;;;8.80;76.45
81372;BME280;70827;52.206;5.294;2023-12-20T12:26:17;101230.63;;;8.73;76.42
81372;BME280;70827;52.206;5.294;2023-12-20T12:28:43;101209.13;;;8.91;76.91
81372;BME280;70827;52.206;5.294;2023-12-20T12:31:08;101209.09;;;8.86;76.87
81372;BME280;70827;52.206;5.294;2023-12-20T12:33:38;101192.75;;;8.69;76.52
81372;BME280;70827;52.206;5.294;2023-12-20T12:36:04;101190.16;;;8.66;76.76
81372;BME280;70827;52.206;5.294;2023-12-20T12:38:33;101179.81;;;8.66;77.01
81372;BME280;70827;52.206;5.294;2023-12-20T12:40:58;101218.59;;;8.64;77.20
81372;BME280;70827;52.206;5.294;2023-12-20T12:43:25;101188.44;;;8.65;77.87
81372;BME280;70827;52.206;5.294;2023-12-20T12:45:50;101179.81;;;8.69;78.10
81372;BME280;70827;52.206;5.294;2023-12-20T12:48:16;101193.63;;;8.62;77.64
81372;BME280;70827;52.206;5.294;2023-12-20T12:50:41;101191.03;;;8.62;77.36
81372;BME280;70827;52.206;5.294;2023-12-20T12:53:07;101202.22;;;8.56;78.02
81372;BME280;70827;52.206;5.294;2023-12-20T12:55:35;101188.47;;;8.57;78.13